Time;durP1;ratioP1;P1;durP2;ratioP2;P2;SDS_P1;SDS_P2;PMS_P1;PMS_P2;Temp;Humidity;BMP_temperature;BMP_pressure;BME280_temperature;BME280_humidity;BME280_pressure;Samples;Min_cycle;Max_cycle;Signal;HPM_P1;HPM_P2
2023/07/09 00:01:18;;;;;;;4.95;2.00;;;;;;;18.86;51.07;94363.72;5065519;28;20070;-76
2023/07/09 00:03:51;;;;;;;5.30;1.80;;;;;;;18.80;50.86;94365.91;5065539;28;20056;-76
2023/07/09 00:06:17;;;;;;;6.72;2.00;;;;;;;18.79;51.21;94352.78;5065402;28;20139;-75
2023/07/09 00:08:46;;;;;;;8.35;2.80;;;;;;;18.79;50.95;94355.47;5064284;28;20032;-75
2023/07/09 00:11:12;;;;;;;6.93;2.17;;;;;;;18.78;50.80;94361.97;5065451;28;20361;-75
2023/07/09 00:13:38;;;;;;;7.93;3.50;;;;;;;18.80;51.58;94355.09;5065307;28;20032;-75
2023/07/09 00:16:21;;;;;;;8.13;2.28;;;;;;;18.78;51.21;94349.22;5065392;28;20044;-75
2023/07/09 00:18:48;;;;;;;5.47;2.17;;;;;;;18.77;51.18;94361.19;5065166;28;20314;-76
2023/07/09 00:21:15;;;;;;;8.60;1.90;;;;;;;18.74;50.77;94345.69;5064526;28;20033;-76
2023/07/09 00:23:41;;;;;;;8.45;1.90;;;;;;;18.71;51.09;94345.63;5065212;28;20212;-76
2023/07/09 00:26:13;;;;;;;3.75;1.85;;;;;;;18.68;50.52;94349.78;5065009;28;20033;-76
2023/07/09 00:28:39;;;;;;;7.93;2.55;;;;;;;18.72;51.27;94353.34;5065134;28;20040;-76
2023/07/09 00:31:05;;;;;;;17.95;2.72;;;;;;;18.75;50.80;94349.19;5065104;28;20025;-76
2023/07/09 00:33:31;;;;;;;6.88;1.95;;;;;;;18.71;50.91;94342.91;5065063;28;20029;-76
2023/07/09 00:35:57;;;;;;;7.05;2.22;;;;;;;18.64;51.03;94338.94;5064954;28;20024;-76
2023/07/09 00:38:23;;;;;;;6.85;2.80;;;;;;;18.67;50.96;94347.47;5064897;28;20255;-76
2023/07/09 00:41:04;;;;;;;4.68;1.95;;;;;;;18.59;51.30;94344.59;5064671;28;20032;-76
2023/07/09 00:43:35;;;;;;;12.77;2.13;;;;;;;18.59;51.01;94346.50;5064787;28;20029;-76
2023/07/09 00:46:14;;;;;;;9.88;2.05;;;;;;;18.50;50.98;94338.63;5064822;28;20025;-76
2023/07/09 00:48:40;;;;;;;8.80;2.08;;;;;;;18.53;50.96;94337.13;5064609;28;20024;-76
2023/07/09 00:51:11;;;;;;;4.82;1.80;;;;;;;18.54;51.04;94331.38;5064416;28;20256;-75
2023/07/09 00:53:39;;;;;;;11.65;2.15;;;;;;;18.50;50.78;94335.91;5064507;28;20238;-75
2023/07/09 00:56:09;;;;;;;5.70;2.85;;;;;;;18.54;50.96;94328.69;5064428;28;20027;-75
2023/07/09 00:58:37;;;;;;;6.18;2.25;;;;;;;18.62;50.98;94327.69;5064353;28;20052;-76
2023/07/09 01:01:07;;;;;;;6.85;2.25;;;;;;;18.59;50.62;94338.41;5064684;28;20029;-76
2023/07/09 01:03:43;;;;;;;4.38;1.80;;;;;;;18.50;50.74;94330.50;5064504;28;20067;-76
2023/07/09 01:06:10;;;;;;;9.05;2.97;;;;;;;18.48;51.10;94332.78;5064141;28;20070;-76
2023/07/09 01:08:41;;;;;;;10.50;2.13;;;;;;;18.48;50.93;94335.47;5064441;28;20041;-75
2023/07/09 01:11:15;;;;;;;6.90;2.05;;;;;;;18.46;50.49;94326.97;5064214;28;20230;-75
2023/07/09 01:13:44;;;;;;;6.55;2.13;;;;;;;18.42;50.76;94334.19;5064260;28;20055;-75
2023/07/09 01:16:09;;;;;;;3.55;1.83;;;;;;;18.50;50.93;94327.81;5064235;28;20016;-75
2023/07/09 01:18:36;;;;;;;6.00;2.00;;;;;;;18.56;50.78;94329.09;5064176;28;20046;-75
2023/07/09 01:21:07;;;;;;;13.45;2.80;;;;;;;18.54;50.88;94320.59;5064094;28;20219;-75
2023/07/09 01:23:33;;;;;;;9.23;2.30;;;;;;;18.53;50.50;94323.63;5064287;28;20048;-75
2023/07/09 01:25:58;;;;;;;8.48;2.33;;;;;;;18.40;50.86;94312.16;5064200;28;20043;-76
2023/07/09 01:28:24;;;;;;;5.85;1.92;;;;;;;18.41;50.89;94313.72;5064054;28;20094;-76
2023/07/09 01:30:53;;;;;;;6.18;1.95;;;;;;;18.40;51.27;94321.03;5063918;28;20091;-76
2023/07/09 01:33:20;;;;;;;6.18;2.08;;;;;;;18.41;51.10;94311.78;5062702;28;20028;-75
2023/07/09 01:35:46;;;;;;;8.13;2.15;;;;;;;18.39;50.83;94318.69;5063690;28;20207;-75
2023/07/09 01:38:11;;;;;;;5.10;2.10;;;;;;;18.36;50.94;94313.97;5063833;28;20101;-76
2023/07/09 01:40:37;;;;;;;7.43;2.35;;;;;;;18.29;50.97;94317.31;5063719;28;20017;-76
2023/07/09 01:43:06;;;;;;;5.85;2.33;;;;;;;18.35;51.02;94307.81;5063635;28;20341;-75
2023/07/09 01:45:33;;;;;;;5.43;2.20;;;;;;;18.33;50.90;94317.38;5063575;28;20020;-76
2023/07/09 01:47:58;;;;;;;6.07;2.17;;;;;;;18.33;51.33;94315.47;5063674;28;20140;-76
2023/07/09 01:50:26;;;;;;;8.80;2.05;;;;;;;18.33;51.28;94318.16;5063617;28;20024;-76
2023/07/09 01:52:53;;;;;;;3.78;2.10;;;;;;;18.33;52.17;94328.97;5063350;28;20028;-76
2023/07/09 01:55:19;;;;;;;4.65;1.77;;;;;;;18.30;51.73;94331.56;5063357;28;20029;-76
2023/07/09 01:57:45;;;;;;;7.90;1.90;;;;;;;18.28;51.14;94329.25;5063242;28;20052;-76
2023/07/09 02:00:13;;;;;;;7.05;2.28;;;;;;;18.25;51.23;94330.69;5063117;28;20195;-76
2023/07/09 02:02:43;;;;;;;3.72;1.90;;;;;;;18.25;51.34;94329.94;5063048;28;20021;-76
2023/07/09 02:05:10;;;;;;;6.93;2.08;;;;;;;18.28;51.33;94328.44;5062953;28;20045;-76
2023/07/09 02:07:36;;;;;;;4.70;2.10;;;;;;;18.28;51.39;94328.44;5063016;28;20025;-76
2023/07/09 02:10:41;;;;;;;3.75;1.80;;;;;;;18.22;51.15;94327.94;5063072;28;20035;-77
2023/07/09 02:13:07;;;;;;;8.80;2.83;;;;;;;18.25;51.19;94333.41;5021289;28;20041;-76
2023/07/09 02:15:32;;;;;;;5.75;2.22;;;;;;;18.20;50.94;94330.97;5062271;28;20016;-76
2023/07/09 02:17:58;;;;;;;10.93;2.40;;;;;;;18.28;51.50;94337.34;5061700;28;20024;-76
2023/07/09 02:20:26;;;;;;;4.07;2.13;;;;;;;18.26;51.67;94331.50;5062694;28;20037;-76
2023/07/09 02:22:51;;;;;;;3.15;2.10;;;;;;;18.25;51.31;94325.31;5062832;28;20025;-77
2023/07/09 02:25:16;;;;;;;4.40;2.05;;;;;;;18.32;51.12;94330.09;5062467;28;20261;-77
2023/07/09 02:27:42;;;;;;;5.40;3.03;;;;;;;18.33;50.83;94336.28;5063035;28;20029;-76
2023/07/09 02:30:08;;;;;;;12.40;1.73;;;;;;;18.36;50.88;94330.16;5062803;28;20028;-76
2023/07/09 02:32:33;;;;;;;6.90;2.67;;;;;;;18.33;50.78;94336.28;5063060;28;20044;-76
2023/07/09 02:34:59;;;;;;;11.48;2.38;;;;;;;18.34;50.82;94332.44;5062895;28;20240;-77
2023/07/09 02:37:25;;;;;;;7.25;2.03;;;;;;;18.34;51.22;94335.13;5062477;28;20037;-76
2023/07/09 02:39:51;;;;;;;8.82;2.33;;;;;;;18.37;51.10;94337.16;5062876;28;20029;-76
2023/07/09 02:42:19;;;;;;;5.20;2.05;;;;;;;18.37;51.35;94348.72;5061528;28;20180;-76
2023/07/09 02:44:44;;;;;;;9.00;3.00;;;;;;;18.37;51.30;94347.94;5062330;28;20047;-76
2023/07/09 02:47:11;;;;;;;7.78;2.25;;;;;;;18.34;51.26;94351.31;5062537;28;20020;-76
2023/07/09 02:49:37;;;;;;;4.30;2.28;;;;;;;18.36;51.40;94351.75;5062606;28;20028;-76
2023/07/09 02:52:03;;;;;;;3.90;1.50;;;;;;;18.30;50.96;94356.66;5062664;28;20032;-77
2023/07/09 02:54:29;;;;;;;3.83;2.08;;;;;;;18.21;51.00;94356.81;5061536;28;20064;-76
2023/07/09 02:56:54;;;;;;;3.90;1.85;;;;;;;18.21;51.17;94364.91;5062592;28;20025;-76
2023/07/09 02:59:20;;;;;;;17.40;2.25;;;;;;;18.20;51.81;94360.66;5062502;28;20028;-75
2023/07/09 03:01:47;;;;;;;3.72;1.80;;;;;;;18.18;51.78;94362.94;5062531;28;20084;-75
2023/07/09 03:04:13;;;;;;;8.63;2.53;;;;;;;18.11;52.36;94368.13;5062554;28;20027;-75
2023/07/09 03:06:39;;;;;;;4.38;2.30;;;;;;;18.10;51.90;94363.88;5062459;28;20024;-76
2023/07/09 03:09:06;;;;;;;7.45;1.90;;;;;;;18.11;52.01;94373.53;5062215;28;20079;-75
2023/07/09 03:11:32;;;;;;;4.75;2.00;;;;;;;18.11;51.76;94376.22;5062647;28;20029;-76
2023/07/09 03:13:59;;;;;;;6.28;2.10;;;;;;;18.09;51.83;94370.41;5062487;28;20219;-76
2023/07/09 03:16:27;;;;;;;15.18;2.08;;;;;;;18.09;52.26;94370.41;5062305;28;20024;-76
2023/07/09 03:18:54;;;;;;;5.45;2.13;;;;;;;18.09;52.63;94369.63;5062235;28;20139;-76
2023/07/09 03:21:19;;;;;;;8.40;2.47;;;;;;;18.13;52.62;94371.25;5062256;28;20373;-75
2023/07/09 03:23:45;;;;;;;5.35;2.42;;;;;;;18.12;52.29;94372.41;5062274;28;20020;-76
2023/07/09 03:26:10;;;;;;;11.00;2.25;;;;;;;18.12;52.62;94367.00;5062147;28;20021;-75
2023/07/09 03:28:35;;;;;;;10.02;2.45;;;;;;;18.11;52.86;94367.34;5062274;28;20020;-75
2023/07/09 03:31:01;;;;;;;8.95;2.00;;;;;;;18.18;52.57;94381.03;5062322;28;20220;-75
2023/07/09 03:33:26;;;;;;;15.20;2.63;;;;;;;18.17;52.78;94376.75;5062151;28;20023;-76
2023/07/09 03:35:52;;;;;;;5.20;2.30;;;;;;;18.16;52.62;94380.59;5062164;28;20084;-76
2023/07/09 03:38:18;;;;;;;9.98;3.25;;;;;;;18.19;52.85;94380.66;5061100;28;20100;-76
2023/07/09 03:40:44;;;;;;;5.25;2.17;;;;;;;18.15;53.05;94374.41;5061976;28;20025;-76
2023/07/09 03:43:10;;;;;;;8.65;2.25;;;;;;;18.12;53.36;94377.03;5062107;28;20334;-76
2023/07/09 03:45:37;;;;;;;8.85;1.85;;;;;;;18.13;53.15;94375.88;5062182;28;20083;-76
2023/07/09 03:48:05;;;;;;;11.60;2.65;;;;;;;18.16;53.36;94383.28;5062087;28;20092;-77
2023/07/09 03:50:31;;;;;;;12.77;2.30;;;;;;;18.17;53.13;94382.94;5061966;28;20342;-77
2023/07/09 03:52:56;;;;;;;4.55;2.40;;;;;;;18.24;53.36;94376.94;5061999;28;20025;-77
2023/07/09 03:55:21;;;;;;;14.30;3.25;;;;;;;18.24;53.85;94379.63;5062092;28;20123;-75
2023/07/09 03:57:47;;;;;;;6.53;2.00;;;;;;;18.28;54.20;94385.91;5065253;28;20016;-77
2023/07/09 04:00:14;;;;;;;11.95;2.33;;;;;;;18.33;53.53;94384.84;5065491;28;20016;-77
2023/07/09 04:02:40;;;;;;;5.93;2.35;;;;;;;18.39;54.35;94388.84;5065552;28;20031;-77
2023/07/09 04:05:08;;;;;;;5.53;2.88;;;;;;;18.38;54.00;94395.41;5065578;28;20322;-76
2023/07/09 04:07:34;;;;;;;11.98;2.22;;;;;;;18.43;53.73;94390.50;5065630;28;20024;-76
2023/07/09 04:09:59;;;;;;;8.18;2.60;;;;;;;18.48;53.80;94396.75;5065494;28;20033;-76
2023/07/09 04:12:25;;;;;;;8.52;2.63;;;;;;;18.52;54.92;94393.03;5065205;28;20040;-76
2023/07/09 04:14:50;;;;;;;7.10;2.53;;;;;;;18.55;54.52;94396.94;5065513;28;20238;-76
2023/07/09 04:17:15;;;;;;;6.97;2.50;;;;;;;18.56;53.15;94404.69;5065240;28;20048;-76
2023/07/09 04:19:41;;;;;;;8.77;2.25;;;;;;;18.58;53.37;94402.44;5065218;28;20067;-76
2023/07/09 04:22:08;;;;;;;11.05;2.50;;;;;;;18.61;54.12;94412.50;5065073;28;20029;-76
2023/07/09 04:24:33;;;;;;;7.85;3.28;;;;;;;18.64;54.46;94406.44;5065191;28;20029;-76
2023/07/09 04:27:02;;;;;;;12.27;2.72;;;;;;;18.70;53.90;94414.25;5065201;28;20311;-76
2023/07/09 04:29:29;;;;;;;6.00;2.40;;;;;;;18.77;53.56;94409.00;5064935;28;20222;-76
2023/07/09 04:31:54;;;;;;;9.18;2.65;;;;;;;18.84;53.89;94415.38;5064841;28;20060;-76
2023/07/09 04:34:20;;;;;;;6.05;2.67;;;;;;;18.92;53.96;94410.91;5065004;28;20032;-76
2023/07/09 04:36:45;;;;;;;10.52;2.35;;;;;;;18.88;53.54;94420.06;5064902;28;20017;-76
2023/07/09 04:39:10;;;;;;;4.13;2.38;;;;;;;18.95;53.80;94418.31;5064959;28;20104;-76
2023/07/09 04:41:36;;;;;;;14.95;2.35;;;;;;;19.00;52.84;94418.03;5064896;28;20027;-76
2023/07/09 04:44:01;;;;;;;10.45;2.35;;;;;;;19.04;53.01;94423.53;5064854;28;20223;-76
2023/07/09 04:46:27;;;;;;;4.85;2.40;;;;;;;19.03;52.95;94420.03;5064897;28;20028;-76
2023/07/09 04:48:52;;;;;;;7.63;2.67;;;;;;;19.08;53.48;94413.56;5064933;28;20028;-77
2023/07/09 04:51:18;;;;;;;4.88;2.55;;;;;;;19.13;53.42;94412.50;5064531;28;20235;-76
2023/07/09 04:53:44;;;;;;;6.60;2.50;;;;;;;19.16;54.14;94414.53;5064527;28;20099;-76
2023/07/09 04:56:09;;;;;;;5.95;2.60;;;;;;;19.21;54.02;94412.31;5064383;28;20021;-76
2023/07/09 04:58:35;;;;;;;10.98;2.22;;;;;;;19.21;52.91;94417.72;5064775;28;20270;-76
2023/07/09 05:01:01;;;;;;;4.85;2.70;;;;;;;19.19;52.91;94411.91;5064822;28;20223;-75
2023/07/09 05:03:26;;;;;;;9.32;2.58;;;;;;;19.21;54.40;94419.63;5064373;28;20035;-76
2023/07/09 05:05:52;;;;;;;4.97;3.05;;;;;;;19.29;54.23;94417.88;5064045;28;20078;-76
2023/07/09 05:08:18;;;;;;;5.13;2.17;;;;;;;19.33;53.18;94421.44;5064127;28;20028;-76
2023/07/09 05:10:44;;;;;;;6.53;2.50;;;;;;;19.27;53.62;94420.13;5064379;28;20025;-76
2023/07/09 05:13:10;;;;;;;8.60;3.03;;;;;;;19.25;53.72;94434.00;5064315;28;20248;-76
2023/07/09 05:15:39;;;;;;;14.98;3.03;;;;;;;19.22;52.89;94424.69;5064028;28;20021;-76
2023/07/09 05:18:05;;;;;;;4.82;2.15;;;;;;;19.21;53.76;94428.53;5064154;28;20223;-76
2023/07/09 05:20:30;;;;;;;8.93;3.22;;;;;;;19.14;54.64;94435.69;5064239;28;20032;-77
2023/07/09 05:22:56;;;;;;;4.47;2.17;;;;;;;19.06;53.16;94436.69;5064058;28;20040;-76
2023/07/09 05:25:21;;;;;;;7.97;2.25;;;;;;;19.01;52.87;94441.22;5063821;28;20132;-76
2023/07/09 05:27:47;;;;;;;9.48;2.63;;;;;;;18.99;52.90;94432.69;5064301;28;20041;-76
2023/07/09 05:30:12;;;;;;;6.40;2.45;;;;;;;18.97;53.85;94440.38;5064091;28;20025;-76
2023/07/09 05:32:38;;;;;;;8.82;2.70;;;;;;;19.04;54.75;94431.63;5064098;28;20361;-76
2023/07/09 05:35:04;;;;;;;6.63;2.30;;;;;;;19.07;53.80;94440.94;5064007;28;20025;-76
2023/07/09 05:37:30;;;;;;;9.70;3.30;;;;;;;19.13;53.74;94434.13;5063955;28;20246;-76
2023/07/09 05:39:56;;;;;;;9.05;2.65;;;;;;;19.15;54.37;94431.84;5064041;28;20210;-76
2023/07/09 05:42:22;;;;;;;7.82;3.75;;;;;;;19.12;54.12;94432.56;5064211;28;20016;-76
2023/07/09 05:44:47;;;;;;;6.40;3.42;;;;;;;19.12;53.37;94425.25;5063933;28;20110;-76
2023/07/09 05:47:13;;;;;;;6.78;2.67;;;;;;;19.13;53.56;94429.53;5063773;28;20333;-75
2023/07/09 05:49:39;;;;;;;7.70;3.10;;;;;;;19.17;51.61;94438.50;5063575;28;20214;-74
2023/07/09 05:52:05;;;;;;;10.30;2.63;;;;;;;19.23;52.26;94436.28;5063910;28;20023;-74
2023/07/09 05:54:31;;;;;;;6.63;2.97;;;;;;;19.35;53.80;94427.25;5063625;28;20037;-75
2023/07/09 05:56:56;;;;;;;9.70;2.60;;;;;;;19.37;52.70;94420.34;5063374;28;20084;-75
2023/07/09 05:59:21;;;;;;;8.52;2.83;;;;;;;19.40;53.48;94429.69;5063498;28;20024;-75
2023/07/09 06:01:47;;;;;;;13.57;3.33;;;;;;;19.53;53.34;94433.03;5063366;28;20055;-75
2023/07/09 06:04:13;;;;;;;7.95;2.80;;;;;;;19.64;51.79;94426.69;5063136;28;20016;-75
2023/07/09 06:06:41;;;;;;;7.32;2.30;;;;;;;19.63;51.71;94427.06;5062999;28;20066;-74
2023/07/09 06:09:07;;;;;;;9.52;2.70;;;;;;;19.67;50.88;94433.31;5063263;28;20040;-74
2023/07/09 06:11:33;;;;;;;5.00;2.75;;;;;;;19.68;50.43;94417.88;5063477;28;20272;-74
2023/07/09 06:13:59;;;;;;;9.02;2.88;;;;;;;19.73;51.35;94421.09;5063249;28;20115;-75
2023/07/09 06:16:24;;;;;;;6.63;2.60;;;;;;;19.76;51.56;94428.50;5062891;28;20029;-75
2023/07/09 06:18:50;;;;;;;8.77;3.13;;;;;;;19.81;51.82;94427.44;5062316;28;20323;-76
2023/07/09 06:21:15;;;;;;;4.80;2.47;;;;;;;19.83;52.20;94412.41;5063106;28;20021;-77
2023/07/09 06:23:41;;;;;;;6.03;2.47;;;;;;;19.80;51.36;94421.25;5063004;28;20027;-76
2023/07/09 06:26:06;;;;;;;8.85;2.67;;;;;;;19.80;51.65;94421.25;5062893;28;20092;-77
2023/07/09 06:28:32;;;;;;;8.65;2.95;;;;;;;19.82;50.85;94418.97;5063009;28;20270;-76
2023/07/09 06:30:58;;;;;;;10.15;2.58;;;;;;;19.88;51.02;94419.44;5062810;28;20020;-75
2023/07/09 06:33:25;;;;;;;5.22;2.60;;;;;;;19.89;51.30;94425.66;5062628;28;20375;-76
2023/07/09 06:35:55;;;;;;;11.32;2.28;;;;;;;19.97;51.42;94419.22;5062938;28;20104;-76
2023/07/09 06:38:22;;;;;;;6.50;2.15;;;;;;;20.03;52.85;94406.97;5062848;28;20063;-75
2023/07/09 06:40:47;;;;;;;6.05;2.38;;;;;;;20.07;53.06;94412.41;5061894;28;20226;-76
2023/07/09 06:43:13;;;;;;;6.35;2.47;;;;;;;20.18;51.53;94416.88;5062852;28;20021;-76
2023/07/09 06:45:39;;;;;;;3.95;2.33;;;;;;;20.21;51.12;94409.97;5062648;28;20306;-73
2023/07/09 06:48:05;;;;;;;4.43;2.40;;;;;;;20.21;49.77;94407.25;5062676;28;20032;-74
2023/07/09 06:50:34;;;;;;;5.53;2.30;;;;;;;20.24;51.20;94420.06;5063022;28;20312;-74
2023/07/09 06:53:00;;;;;;;6.28;2.60;;;;;;;20.23;52.21;94415.78;5062740;28;20346;-77
2023/07/09 06:55:26;;;;;;;17.88;2.75;;;;;;;20.30;51.30;94417.84;5062647;28;20040;-75
2023/07/09 06:57:51;;;;;;;9.43;3.42;;;;;;;20.34;51.79;94405.16;5062487;28;20035;-75
2023/07/09 07:00:17;;;;;;;10.68;2.08;;;;;;;20.41;52.27;94422.31;5062552;28;20029;-75
2023/07/09 07:02:42;;;;;;;6.38;2.20;;;;;;;20.47;49.88;94409.22;5062601;28;20032;-74
2023/07/09 07:05:08;;;;;;;8.40;2.53;;;;;;;20.43;50.10;94413.81;5062535;28;20083;-75
2023/07/09 07:07:33;;;;;;;9.40;2.63;;;;;;;20.46;50.13;94415.81;5062580;28;20047;-75
2023/07/09 07:09:58;;;;;;;5.63;2.53;;;;;;;20.46;51.37;94417.75;5062534;28;20039;-75
2023/07/09 07:12:26;;;;;;;5.60;3.00;;;;;;;20.62;51.60;94418.41;5062597;28;20227;-75
2023/07/09 07:14:53;;;;;;;10.10;2.55;;;;;;;20.70;49.80;94416.56;5062497;28;20025;-75
2023/07/09 07:17:18;;;;;;;9.88;2.60;;;;;;;20.79;49.71;94414.41;5062214;28;20032;-75
2023/07/09 07:19:44;;;;;;;9.98;2.70;;;;;;;20.83;49.66;94420.66;5062288;28;20410;-74
2023/07/09 07:22:09;;;;;;;5.05;2.30;;;;;;;20.82;49.18;94427.22;5062451;28;20032;-74
2023/07/09 07:24:35;;;;;;;7.35;2.20;;;;;;;20.76;47.71;94417.81;5062544;28;20029;-74
2023/07/09 07:27:00;;;;;;;10.23;2.58;;;;;;;20.77;47.65;94422.13;5062383;28;20029;-75
2023/07/09 07:29:25;;;;;;;7.65;2.67;;;;;;;20.81;49.07;94407.47;5062247;28;20025;-75
2023/07/09 07:31:51;;;;;;;6.53;2.65;;;;;;;20.84;48.05;94412.16;5064092;28;20059;-74
2023/07/09 07:34:16;;;;;;;5.43;2.33;;;;;;;20.89;48.54;94415.72;5066276;28;20200;-75
2023/07/09 07:36:42;;;;;;;9.57;2.50;;;;;;;20.96;47.59;94403.03;5066148;28;20175;-75
2023/07/09 07:39:07;;;;;;;6.05;2.50;;;;;;;21.07;49.25;94397.00;5067630;28;20029;-76
2023/07/09 07:41:32;;;;;;;7.15;2.10;;;;;;;21.16;48.96;94394.78;5066283;28;20052;-76
2023/07/09 07:43:58;;;;;;;7.90;2.55;;;;;;;21.26;49.67;94391.44;5066258;28;20043;-76
2023/07/09 07:46:23;;;;;;;8.55;3.63;;;;;;;21.33;48.68;94405.09;5065960;28;20043;-76
2023/07/09 07:48:49;;;;;;;6.05;2.25;;;;;;;21.34;48.19;94412.06;5066013;28;20038;-76
2023/07/09 07:51:14;;;;;;;10.20;2.55;;;;;;;21.36;47.56;94412.47;5065845;28;20037;-76
2023/07/09 07:53:40;;;;;;;7.38;2.85;;;;;;;21.37;48.16;94403.19;5065757;28;20055;-75
2023/07/09 07:56:05;;;;;;;6.47;2.92;;;;;;;21.48;48.02;94408.78;5065866;28;20029;-76
2023/07/09 07:58:32;;;;;;;5.28;2.60;;;;;;;21.54;46.67;94401.09;5066304;28;20024;-76
2023/07/09 08:00:58;;;;;;;5.38;2.28;;;;;;;21.58;46.71;94404.63;5065705;28;20029;-76
2023/07/09 08:03:24;;;;;;;11.77;3.20;;;;;;;21.57;46.90;94403.06;5065679;28;20254;-76
2023/07/09 08:05:50;;;;;;;6.72;2.45;;;;;;;21.58;48.21;94400.00;5065620;28;20036;-76
2023/07/09 08:08:16;;;;;;;6.82;2.90;;;;;;;21.66;46.63;94395.44;5065741;28;20095;-76
2023/07/09 08:10:41;;;;;;;7.88;3.05;;;;;;;21.77;47.83;94398.25;5065630;28;20029;-76
2023/07/09 08:13:07;;;;;;;7.10;2.28;;;;;;;21.81;47.24;94391.72;5065329;28;20310;-76
2023/07/09 08:15:32;;;;;;;5.63;2.50;;;;;;;21.96;48.70;94392.66;5065557;28;20365;-76
2023/07/09 08:17:57;;;;;;;5.35;2.22;;;;;;;22.07;46.44;94392.75;5065435;28;20031;-76
2023/07/09 08:20:23;;;;;;;7.18;2.58;;;;;;;22.13;46.83;94393.97;5065225;28;20377;-76
2023/07/09 08:22:48;;;;;;;12.23;3.47;;;;;;;22.13;48.93;94374.97;5065356;28;20322;-76
2023/07/09 08:25:14;;;;;;;7.05;2.80;;;;;;;22.20;46.17;94383.16;5065194;28;20337;-76
2023/07/09 08:27:39;;;;;;;4.65;2.50;;;;;;;22.30;47.93;94383.69;5065169;28;20017;-76
2023/07/09 08:30:06;;;;;;;5.25;2.50;;;;;;;22.32;47.77;94379.41;5065369;28;20084;-76
2023/07/09 08:32:31;;;;;;;8.25;2.80;;;;;;;22.43;48.32;94387.69;5065408;28;20088;-76
2023/07/09 08:34:57;;;;;;;3.95;2.45;;;;;;;22.41;46.86;94376.41;5065035;28;20051;-76
2023/07/09 08:37:22;;;;;;;3.53;2.25;;;;;;;22.41;47.97;94379.13;5065298;28;20200;-76
2023/07/09 08:39:48;;;;;;;5.80;2.95;;;;;;;22.44;44.82;94389.22;5065125;28;20028;-76
2023/07/09 08:42:39;;;;;;;9.30;3.17;;;;;;;22.51;46.50;94388.50;5064507;28;20025;-76
2023/07/09 08:45:23;;;;;;;5.03;2.55;;;;;;;22.56;45.58;94385.44;5064866;28;20373;-76
2023/07/09 08:48:03;;;;;;;6.32;2.75;;;;;;;22.61;44.98;94383.16;5064797;28;20028;-76
2023/07/09 08:50:37;;;;;;;12.43;2.92;;;;;;;22.60;45.29;94381.59;5064832;28;20086;-76
2023/07/09 08:53:05;;;;;;;5.25;2.72;;;;;;;22.60;45.56;94380.81;5064445;28;20037;-76
2023/07/09 08:55:39;;;;;;;6.55;3.47;;;;;;;22.60;45.86;94381.59;5064496;28;20024;-76
2023/07/09 08:58:11;;;;;;;4.55;2.97;;;;;;;22.67;46.84;94375.41;5064263;28;20051;-77
2023/07/09 09:00:45;;;;;;;10.18;2.70;;;;;;;22.72;45.51;94383.22;5064609;28;20307;-76
2023/07/09 09:03:19;;;;;;;6.82;3.08;;;;;;;22.81;47.01;94380.94;5063977;28;20074;-75
2023/07/09 09:05:49;;;;;;;7.68;3.35;;;;;;;22.93;47.49;94382.56;5063977;28;20048;-75
2023/07/09 09:08:36;;;;;;;8.93;2.80;;;;;;;22.99;45.79;94396.59;5064136;28;20103;-76
2023/07/09 09:11:15;;;;;;;6.55;3.13;;;;;;;22.89;45.03;94392.66;5064236;28;20021;-75
2023/07/09 09:13:43;;;;;;;7.10;3.03;;;;;;;22.86;47.42;94387.19;5064332;28;20052;-76
2023/07/09 09:16:17;;;;;;;5.68;3.08;;;;;;;22.98;45.39;94390.38;5063616;28;20055;-75
2023/07/09 09:18:47;;;;;;;8.23;3.47;;;;;;;22.97;46.59;94377.94;5063941;28;20021;-76
2023/07/09 09:21:23;;;;;;;5.38;2.83;;;;;;;23.07;46.38;94394.75;5063920;28;20024;-73
2023/07/09 09:23:54;;;;;;;6.20;3.03;;;;;;;23.15;45.12;94388.94;5064037;28;20040;-73
2023/07/09 09:26:34;;;;;;;5.45;2.80;;;;;;;23.17;45.87;94396.75;5063804;28;20029;-72
2023/07/09 09:29:00;;;;;;;8.05;2.92;;;;;;;23.22;45.14;94393.63;5061264;28;20021;-73
2023/07/09 09:31:29;;;;;;;4.40;2.88;;;;;;;23.25;46.12;94392.88;5061374;28;20056;-73
2023/07/09 09:33:55;;;;;;;6.80;3.05;;;;;;;23.21;43.49;94387.44;5062088;28;20412;-73
2023/07/09 09:36:24;;;;;;;4.85;3.33;;;;;;;23.20;44.10;94385.88;5060972;28;20025;-72
2023/07/09 09:38:50;;;;;;;8.52;3.55;;;;;;;23.31;45.44;94388.66;5061032;28;20025;-73
2023/07/09 09:41:19;;;;;;;4.30;2.53;;;;;;;23.37;43.03;94376.25;5061179;28;20020;-72
2023/07/09 09:43:46;;;;;;;5.00;3.00;;;;;;;23.45;44.41;94371.63;5061654;28;20195;-73
2023/07/09 09:46:20;;;;;;;7.38;2.90;;;;;;;23.47;43.62;94382.09;5061419;28;20028;-71
2023/07/09 09:48:48;;;;;;;6.03;2.70;;;;;;;23.50;43.74;94365.78;5060360;28;20214;-72
2023/07/09 09:51:16;;;;;;;9.82;2.97;;;;;;;23.56;43.65;94375.13;5060062;28;20040;-72
2023/07/09 09:53:47;;;;;;;6.90;3.05;;;;;;;23.68;44.47;94370.53;5060809;28;20050;-72
2023/07/09 09:56:18;;;;;;;12.27;3.08;;;;;;;23.75;42.63;94368.59;5063330;28;20084;-72
2023/07/09 09:58:44;;;;;;;7.07;2.60;;;;;;;23.73;42.90;94364.69;5063426;28;20032;-72
2023/07/09 10:01:17;;;;;;;7.70;2.70;;;;;;;23.79;42.86;94366.72;5063289;28;20291;-72
2023/07/09 10:03:44;;;;;;;4.40;2.55;;;;;;;23.74;42.82;94366.25;5061899;28;20036;-72
2023/07/09 10:06:19;;;;;;;6.43;2.72;;;;;;;23.79;42.49;94363.19;5061430;28;20028;-72
2023/07/09 10:09:16;;;;;;;6.85;2.65;;;;;;;23.92;45.53;94353.50;5061418;28;20100;-73
2023/07/09 10:11:53;;;;;;;3.65;2.42;;;;;;;23.97;41.80;94355.06;5061627;28;20048;-72
2023/07/09 10:14:39;;;;;;;9.63;3.47;;;;;;;23.93;41.90;94362.44;5061984;28;20028;-72
2023/07/09 10:17:35;;;;;;;6.90;2.83;;;;;;;23.96;41.87;94354.28;5062196;28;20020;-72
2023/07/09 10:20:19;;;;;;;10.48;2.88;;;;;;;24.11;42.81;94357.81;5063200;28;20040;-72
2023/07/09 10:23:35;;;;;;;5.35;2.60;;;;;;;24.17;42.75;94345.34;5062777;28;20032;-72
2023/07/09 10:26:06;;;;;;;6.18;2.97;;;;;;;24.29;41.61;94354.31;5041280;28;20131;-72
2023/07/09 10:28:37;;;;;;;8.48;3.55;;;;;;;24.31;42.17;94352.75;5061331;28;20064;-73
2023/07/09 10:31:06;;;;;;;6.83;2.90;;;;;;;24.25;40.28;94351.59;5063081;28;20321;-73
2023/07/09 10:33:40;;;;;;;6.50;2.85;;;;;;;24.20;40.03;94363.66;5062904;28;20421;-73
2023/07/09 10:36:38;;;;;;;4.20;2.75;;;;;;;24.09;40.20;94334.84;5062752;28;20032;-73
2023/07/09 10:39:13;;;;;;;4.18;2.53;;;;;;;24.13;41.14;94339.13;5061596;28;20320;-73
2023/07/09 10:41:42;;;;;;;6.22;2.75;;;;;;;24.18;41.12;94346.94;5061519;28;20029;-73
2023/07/09 10:44:24;;;;;;;4.72;2.60;;;;;;;24.03;39.46;94354.28;5061589;28;20070;-73
2023/07/09 10:46:55;;;;;;;5.40;2.95;;;;;;;24.08;40.81;94355.88;5062637;28;20044;-73
2023/07/09 10:49:23;;;;;;;4.22;2.67;;;;;;;24.22;40.20;94333.28;5062572;28;20029;-73
2023/07/09 10:51:53;;;;;;;7.45;2.78;;;;;;;24.32;41.26;94331.75;5061461;28;20319;-72
2023/07/09 10:54:41;;;;;;;6.43;2.83;;;;;;;24.35;39.11;94336.41;5062492;28;20114;-72
2023/07/09 10:57:17;;;;;;;4.43;2.60;;;;;;;24.40;39.37;94339.53;5062778;28;20254;-72
2023/07/09 10:59:48;;;;;;;4.93;2.75;;;;;;;24.47;40.10;94343.44;5062555;28;20048;-72
2023/07/09 11:02:25;;;;;;;7.57;2.65;;;;;;;24.60;40.90;94348.09;5062451;28;20044;-72
2023/07/09 11:05:00;;;;;;;8.68;2.60;;;;;;;24.66;39.79;94345.00;5062888;28;20013;-72
2023/07/09 11:07:58;;;;;;;4.97;2.67;;;;;;;24.65;38.98;94344.22;5066640;28;20035;-73
2023/07/09 11:10:34;;;;;;;7.13;2.72;;;;;;;24.55;38.33;94334.88;5066483;28;20021;-72
2023/07/09 11:13:12;;;;;;;4.28;2.20;;;;;;;24.58;36.95;94342.25;5066453;28;20036;-72
2023/07/09 11:15:41;;;;;;;5.40;2.30;;;;;;;24.57;37.07;94338.00;5066552;28;20084;-72
2023/07/09 11:18:30;;;;;;;10.10;2.28;;;;;;;24.54;36.06;94338.00;5066261;28;20028;-72
2023/07/09 11:21:07;;;;;;;5.50;2.30;;;;;;;24.69;37.17;94333.28;5066035;28;20118;-72
2023/07/09 11:23:49;;;;;;;4.65;2.72;;;;;;;24.80;40.07;94339.53;5066610;28;20254;-72
2023/07/09 11:26:32;;;;;;;4.30;2.40;;;;;;;24.79;37.38;94340.66;5066130;28;20110;-72
2023/07/09 11:29:07;;;;;;;7.45;2.83;;;;;;;24.78;37.55;94330.97;5066225;28;20025;-72
2023/07/09 11:31:38;;;;;;;9.63;3.30;;;;;;;24.90;38.29;94330.53;5066382;28;20025;-72
2023/07/09 11:34:12;;;;;;;4.03;2.55;;;;;;;24.98;38.24;94334.03;5066422;28;20029;-72
2023/07/09 11:36:50;;;;;;;4.75;2.72;;;;;;;25.02;36.42;94332.84;5066038;28;20222;-71
2023/07/09 11:39:20;;;;;;;6.75;2.92;;;;;;;25.09;38.28;94331.25;5066132;28;20025;-72